sensor_id;sensor_type;location;lat;lon;timestamp;temperature;humidity
79026;DHT22;71097;44.760;37.726;2023-07-13T00:01:00;24.25;76.11
79026;DHT22;71097;44.760;37.726;2023-07-13T00:02:02;24.25;75.92
79026;DHT22;71097;44.760;37.726;2023-07-13T00:03:04;24.26;76.29
79026;DHT22;71097;44.760;37.726;2023-07-13T00:04:06;24.24;76.46
79026;DHT22;71097;44.760;37.726;2023-07-13T00:05:08;24.19;76.71
79026;DHT22;71097;44.760;37.726;2023-07-13T00:06:10;24.16;76.94
79026;DHT22;71097;44.760;37.726;2023-07-13T00:07:12;24.13;76.95
79026;DHT22;71097;44.760;37.726;2023-07-13T00:08:15;24.11;77.06
79026;DHT22;71097;44.760;37.726;2023-07-13T00:09:17;24.12;77.18
79026;DHT22;71097;44.760;37.726;2023-07-13T00:10:19;24.13;76.79
79026;DHT22;71097;44.760;37.726;2023-07-13T00:11:21;24.14;77.18
79026;DHT22;71097;44.760;37.726;2023-07-13T00:12:27;24.13;77.17
79026;DHT22;71097;44.760;37.726;2023-07-13T00:13:30;24.13;77.15
79026;DHT22;71097;44.760;37.726;2023-07-13T00:14:32;24.10;77.27
79026;DHT22;71097;44.760;37.726;2023-07-13T00:15:34;24.06;77.20
79026;DHT22;71097;44.760;37.726;2023-07-13T00:16:38;24.03;77.43
79026;DHT22;71097;44.760;37.726;2023-07-13T00:17:42;24.02;77.64
79026;DHT22;71097;44.760;37.726;2023-07-13T00:18:47;23.98;77.76
79026;DHT22;71097;44.760;37.726;2023-07-13T00:19:49;23.97;77.87
79026;DHT22;71097;44.760;37.726;2023-07-13T00:20:51;23.92;77.82
79026;DHT22;71097;44.760;37.726;2023-07-13T00:21:52;23.90;77.95
79026;DHT22;71097;44.760;37.726;2023-07-13T00:22:57;23.91;77.95
79026;DHT22;71097;44.760;37.726;2023-07-13T00:23:59;23.89;78.10
79026;DHT22;71097;44.760;37.726;2023-07-13T00:25:02;23.89;78.18
79026;DHT22;71097;44.760;37.726;2023-07-13T00:26:05;23.90;78.08
79026;DHT22;71097;44.760;37.726;2023-07-13T00:27:08;23.87;78.28
79026;DHT22;71097;44.760;37.726;2023-07-13T00:28:10;23.83;78.17
79026;DHT22;71097;44.760;37.726;2023-07-13T00:29:12;23.83;78.11
79026;DHT22;71097;44.760;37.726;2023-07-13T00:30:15;23.83;78.31
79026;DHT22;71097;44.760;37.726;2023-07-13T00:31:17;23.80;78.33
79026;DHT22;71097;44.760;37.726;2023-07-13T00:32:19;23.81;78.33
79026;DHT22;71097;44.760;37.726;2023-07-13T00:33:21;23.79;78.43
79026;DHT22;71097;44.760;37.726;2023-07-13T00:34:23;23.75;78.51
79026;DHT22;71097;44.760;37.726;2023-07-13T00:35:25;23.77;78.27
79026;DHT22;71097;44.760;37.726;2023-07-13T00:36:27;23.76;78.29
79026;DHT22;71097;44.760;37.726;2023-07-13T00:37:29;23.81;77.82
79026;DHT22;71097;44.760;37.726;2023-07-13T00:38:32;23.83;78.36
79026;DHT22;71097;44.760;37.726;2023-07-13T00:39:34;23.84;78.18
79026;DHT22;71097;44.760;37.726;2023-07-13T00:40:37;23.83;78.34
79026;DHT22;71097;44.760;37.726;2023-07-13T00:41:39;23.80;78.30
79026;DHT22;71097;44.760;37.726;2023-07-13T00:42:41;23.79;78.41
79026;DHT22;71097;44.760;37.726;2023-07-13T00:43:43;23.77;78.24
79026;DHT22;71097;44.760;37.726;2023-07-13T00:46:20;23.77;78.41
79026;DHT22;71097;44.760;37.726;2023-07-13T00:47:22;23.80;78.34
79026;DHT22;71097;44.760;37.726;2023-07-13T00:48:29;23.80;78.26
79026;DHT22;71097;44.760;37.726;2023-07-13T00:49:33;23.80;78.26
79026;DHT22;71097;44.760;37.726;2023-07-13T00:50:37;23.83;78.01
79026;DHT22;71097;44.760;37.726;2023-07-13T00:51:44;23.84;78.19
79026;DHT22;71097;44.760;37.726;2023-07-13T00:52:49;23.82;78.14
79026;DHT22;71097;44.760;37.726;2023-07-13T00:53:53;23.83;78.11
79026;DHT22;71097;44.760;37.726;2023-07-13T00:54:56;23.82;78.27
79026;DHT22;71097;44.760;37.726;2023-07-13T00:55:57;23.79;78.43
79026;DHT22;71097;44.760;37.726;2023-07-13T00:57:02;23.80;78.27
79026;DHT22;71097;44.760;37.726;2023-07-13T00:58:05;23.80;78.27
79026;DHT22;71097;44.760;37.726;2023-07-13T00:59:10;23.80;78.23
79026;DHT22;71097;44.760;37.726;2023-07-13T01:00:14;23.82;78.17
79026;DHT22;71097;44.760;37.726;2023-07-13T01:01:16;23.81;78.22
79026;DHT22;71097;44.760;37.726;2023-07-13T01:02:17;23.82;78.43
79026;DHT22;71097;44.760;37.726;2023-07-13T01:03:19;23.74;78.35
79026;DHT22;71097;44.760;37.726;2023-07-13T01:04:24;23.79;78.37
79026;DHT22;71097;44.760;37.726;2023-07-13T01:05:26;23.76;78.24
79026;DHT22;71097;44.760;37.726;2023-07-13T01:06:28;23.80;77.88
79026;DHT22;71097;44.760;37.726;2023-07-13T01:07:33;23.84;77.68
79026;DHT22;71097;44.760;37.726;2023-07-13T01:08:34;23.87;77.73
79026;DHT22;71097;44.760;37.726;2023-07-13T01:09:36;23.87;77.69
79026;DHT22;71097;44.760;37.726;2023-07-13T01:10:37;23.90;77.56
79026;DHT22;71097;44.760;37.726;2023-07-13T01:11:42;23.97;76.97
79026;DHT22;71097;44.760;37.726;2023-07-13T01:12:45;23.95;77.63
79026;DHT22;71097;44.760;37.726;2023-07-13T01:13:47;23.90;77.26
79026;DHT22;71097;44.760;37.726;2023-07-13T01:14:57;23.92;77.23
79026;DHT22;71097;44.760;37.726;2023-07-13T01:16:11;23.95;77.36
79026;DHT22;71097;44.760;37.726;2023-07-13T01:17:14;23.89;77.46
79026;DHT22;71097;44.760;37.726;2023-07-13T01:18:26;23.87;77.70
79026;DHT22;71097;44.760;37.726;2023-07-13T01:19:37;23.81;78.18
79026;DHT22;71097;44.760;37.726;2023-07-13T01:20:41;23.72;78.37
79026;DHT22;71097;44.760;37.726;2023-07-13T01:21:43;23.71;78.35
79026;DHT22;71097;44.760;37.726;2023-07-13T01:22:45;23.67;78.37
79026;DHT22;71097;44.760;37.726;2023-07-13T01:23:47;23.65;78.53
79026;DHT22;71097;44.760;37.726;2023-07-13T01:24:49;23.62;78.68
79026;DHT22;71097;44.760;37.726;2023-07-13T01:25:52;23.60;78.85
79026;DHT22;71097;44.760;37.726;2023-07-13T01:26:53;23.54;78.91
79026;DHT22;71097;44.760;37.726;2023-07-13T01:27:55;23.53;78.80
79026;DHT22;71097;44.760;37.726;2023-07-13T01:28:56;23.57;79.04
79026;DHT22;71097;44.760;37.726;2023-07-13T01:29:58;23.56;78.81
79026;DHT22;71097;44.760;37.726;2023-07-13T01:31:05;23.55;78.76
79026;DHT22;71097;44.760;37.726;2023-07-13T01:32:13;23.53;78.79
79026;DHT22;71097;44.760;37.726;2023-07-13T01:33:16;23.53;78.92
79026;DHT22;71097;44.760;37.726;2023-07-13T01:34:18;23.52;78.88
79026;DHT22;71097;44.760;37.726;2023-07-13T01:35:20;23.49;78.84
79026;DHT22;71097;44.760;37.726;2023-07-13T01:36:21;23.45;79.19
79026;DHT22;71097;44.760;37.726;2023-07-13T01:37:25;23.44;78.67
79026;DHT22;71097;44.760;37.726;2023-07-13T01:38:27;23.44;78.94
79026;DHT22;71097;44.760;37.726;2023-07-13T01:39:28;23.42;79.08
79026;DHT22;71097;44.760;37.726;2023-07-13T01:40:30;23.39;79.20
79026;DHT22;71097;44.760;37.726;2023-07-13T01:41:32;23.40;79.34
79026;DHT22;71097;44.760;37.726;2023-07-13T01:42:39;23.40;78.82
79026;DHT22;71097;44.760;37.726;2023-07-13T01:43:40;23.44;78.73
79026;DHT22;71097;44.760;37.726;2023-07-13T01:44:42;23.45;79.17
79026;DHT22;71097;44.760;37.726;2023-07-13T01:45:44;23.41;78.95
79026;DHT22;71097;44.760;37.726;2023-07-13T01:46:46;23.38;79.00
79026;DHT22;71097;44.760;37.726;2023-07-13T01:47:47;23.32;79.11
79026;DHT22;71097;44.760;37.726;2023-07-13T01:48:54;23.27;79.19
79026;DHT22;71097;44.760;37.726;2023-07-13T01:49:57;23.27;79.26
79026;DHT22;71097;44.760;37.726;2023-07-13T01:51:00;23.25;79.47
79026;DHT22;71097;44.760;37.726;2023-07-13T01:52:02;23.26;79.28
79026;DHT22;71097;44.760;37.726;2023-07-13T01:53:03;23.25;79.19
79026;DHT22;71097;44.760;37.726;2023-07-13T01:54:05;23.23;79.19
79026;DHT22;71097;44.760;37.726;2023-07-13T01:55:07;23.21;79.33
79026;DHT22;71097;44.760;37.726;2023-07-13T01:56:08;23.16;79.29
79026;DHT22;71097;44.760;37.726;2023-07-13T01:57:10;23.14;79.43
79026;DHT22;71097;44.760;37.726;2023-07-13T01:58:11;23.13;79.52
79026;DHT22;71097;44.760;37.726;2023-07-13T01:59:14;23.15;79.02
79026;DHT22;71097;44.760;37.726;2023-07-13T02:00:16;23.15;79.61
79026;DHT22;71097;44.760;37.726;2023-07-13T02:01:18;23.15;79.63
79026;DHT22;71097;44.760;37.726;2023-07-13T02:02:20;23.12;79.72
79026;DHT22;71097;44.760;37.726;2023-07-13T02:03:22;23.13;79.89
79026;DHT22;71097;44.760;37.726;2023-07-13T02:04:23;23.12;79.69
79026;DHT22;71097;44.760;37.726;2023-07-13T02:05:26;23.09;80.17
79026;DHT22;71097;44.760;37.726;2023-07-13T02:06:28;23.09;80.06
79026;DHT22;71097;44.760;37.726;2023-07-13T02:07:30;23.05;80.10
79026;DHT22;71097;44.760;37.726;2023-07-13T02:08:34;23.02;80.35
79026;DHT22;71097;44.760;37.726;2023-07-13T02:09:37;23.00;80.45
79026;DHT22;71097;44.760;37.726;2023-07-13T02:10:38;23.03;80.38
79026;DHT22;71097;44.760;37.726;2023-07-13T02:11:40;23.02;80.41
79026;DHT22;71097;44.760;37.726;2023-07-13T02:12:41;23.03;80.36
79026;DHT22;71097;44.760;37.726;2023-07-13T02:13:44;23.02;80.66
79026;DHT22;71097;44.760;37.726;2023-07-13T02:14:50;23.02;80.52
79026;DHT22;71097;44.760;37.726;2023-07-13T02:15:52;23.00;80.32
79026;DHT22;71097;44.760;37.726;2023-07-13T02:16:54;22.98;80.80
79026;DHT22;71097;44.760;37.726;2023-07-13T02:17:55;22.99;80.50
79026;DHT22;71097;44.760;37.726;2023-07-13T02:18:58;22.99;80.43
79026;DHT22;71097;44.760;37.726;2023-07-13T02:19:59;23.00;80.20
79026;DHT22;71097;44.760;37.726;2023-07-13T02:21:01;23.00;80.13
79026;DHT22;71097;44.760;37.726;2023-07-13T02:22:04;23.06;80.03
79026;DHT22;71097;44.760;37.726;2023-07-13T02:23:06;23.07;79.74
79026;DHT22;71097;44.760;37.726;2023-07-13T02:24:08;23.07;79.78
79026;DHT22;71097;44.760;37.726;2023-07-13T02:25:09;23.05;79.96
79026;DHT22;71097;44.760;37.726;2023-07-13T02:26:11;23.09;79.41
79026;DHT22;71097;44.760;37.726;2023-07-13T02:27:13;23.12;79.37
79026;DHT22;71097;44.760;37.726;2023-07-13T02:28:15;23.09;79.49
79026;DHT22;71097;44.760;37.726;2023-07-13T02:29:17;23.10;79.38
79026;DHT22;71097;44.760;37.726;2023-07-13T02:30:20;23.07;79.40
79026;DHT22;71097;44.760;37.726;2023-07-13T02:31:23;23.08;79.38
79026;DHT22;71097;44.760;37.726;2023-07-13T02:32:28;23.05;79.55
79026;DHT22;71097;44.760;37.726;2023-07-13T02:33:30;23.05;79.59
79026;DHT22;71097;44.760;37.726;2023-07-13T02:34:32;23.03;79.51
79026;DHT22;71097;44.760;37.726;2023-07-13T02:35:33;23.07;79.37
79026;DHT22;71097;44.760;37.726;2023-07-13T02:36:35;23.10;79.42
79026;DHT22;71097;44.760;37.726;2023-07-13T02:37:36;23.10;79.45
79026;DHT22;71097;44.760;37.726;2023-07-13T02:38:38;23.12;79.37
79026;DHT22;71097;44.760;37.726;2023-07-13T02:39:40;23.13;79.36
79026;DHT22;71097;44.760;37.726;2023-07-13T02:40:42;23.13;79.42
79026;DHT22;71097;44.760;37.726;2023-07-13T02:41:43;23.15;79.21
79026;DHT22;71097;44.760;37.726;2023-07-13T02:42:46;23.18;79.24
79026;DHT22;71097;44.760;37.726;2023-07-13T02:43:48;23.20;79.17
79026;DHT22;71097;44.760;37.726;2023-07-13T02:44:50;23.18;79.08
79026;DHT22;71097;44.760;37.726;2023-07-13T02:45:52;23.18;79.17
79026;DHT22;71097;44.760;37.726;2023-07-13T02:46:54;23.18;79.08
79026;DHT22;71097;44.760;37.726;2023-07-13T02:47:56;23.23;79.02
79026;DHT22;71097;44.760;37.726;2023-07-13T02:48:58;23.25;78.97
79026;DHT22;71097;44.760;37.726;2023-07-13T02:50:00;23.25;78.94
79026;DHT22;71097;44.760;37.726;2023-07-13T02:51:02;23.24;78.97
79026;DHT22;71097;44.760;37.726;2023-07-13T02:52:04;23.26;78.96
79026;DHT22;71097;44.760;37.726;2023-07-13T02:53:06;23.27;79.01
79026;DHT22;71097;44.760;37.726;2023-07-13T02:54:09;23.26;78.85
79026;DHT22;71097;44.760;37.726;2023-07-13T02:55:11;23.30;78.87
79026;DHT22;71097;44.760;37.726;2023-07-13T02:56:13;23.32;78.72
79026;DHT22;71097;44.760;37.726;2023-07-13T02:57:14;23.34;78.75
79026;DHT22;71097;44.760;37.726;2023-07-13T02:58:16;23.36;78.65
79026;DHT22;71097;44.760;37.726;2023-07-13T02:59:18;23.36;78.61
79026;DHT22;71097;44.760;37.726;2023-07-13T03:00:19;23.35;78.63
79026;DHT22;71097;44.760;37.726;2023-07-13T03:01:21;23.37;78.69
79026;DHT22;71097;44.760;37.726;2023-07-13T03:02:23;23.36;78.72
79026;DHT22;71097;44.760;37.726;2023-07-13T03:03:24;23.37;78.43
79026;DHT22;71097;44.760;37.726;2023-07-13T03:04:26;23.42;78.37
79026;DHT22;71097;44.760;37.726;2023-07-13T03:05:27;23.39;78.46
79026;DHT22;71097;44.760;37.726;2023-07-13T03:06:31;23.38;78.50
79026;DHT22;71097;44.760;37.726;2023-07-13T03:07:34;23.36;78.63
79026;DHT22;71097;44.760;37.726;2023-07-13T03:08:35;23.27;78.62
79026;DHT22;71097;44.760;37.726;2023-07-13T03:09:37;23.24;78.69
79026;DHT22;71097;44.760;37.726;2023-07-13T03:10:40;23.25;78.94
79026;DHT22;71097;44.760;37.726;2023-07-13T03:11:44;23.28;78.73
79026;DHT22;71097;44.760;37.726;2023-07-13T03:12:54;23.29;78.74
79026;DHT22;71097;44.760;37.726;2023-07-13T03:13:59;23.26;78.62
79026;DHT22;71097;44.760;37.726;2023-07-13T03:15:03;23.31;78.75
79026;DHT22;71097;44.760;37.726;2023-07-13T03:16:05;23.34;78.68
79026;DHT22;71097;44.760;37.726;2023-07-13T03:17:07;23.38;78.75
79026;DHT22;71097;44.760;37.726;2023-07-13T03:18:12;23.41;78.70
79026;DHT22;71097;44.760;37.726;2023-07-13T03:19:15;23.45;78.42
79026;DHT22;71097;44.760;37.726;2023-07-13T03:20:20;23.49;78.30
79026;DHT22;71097;44.760;37.726;2023-07-13T03:21:22;23.54;78.36
79026;DHT22;71097;44.760;37.726;2023-07-13T03:22:23;23.59;78.31
79026;DHT22;71097;44.760;37.726;2023-07-13T03:23:31;23.64;78.15
79026;DHT22;71097;44.760;37.726;2023-07-13T03:24:34;23.68;78.00
79026;DHT22;71097;44.760;37.726;2023-07-13T03:25:37;23.70;77.98
79026;DHT22;71097;44.760;37.726;2023-07-13T03:26:38;23.72;77.91
79026;DHT22;71097;44.760;37.726;2023-07-13T03:27:41;23.77;77.76
79026;DHT22;71097;44.760;37.726;2023-07-13T03:28:44;23.84;77.72
79026;DHT22;71097;44.760;37.726;2023-07-13T03:29:50;23.87;77.40
79026;DHT22;71097;44.760;37.726;2023-07-13T03:31:05;23.94;77.23
79026;DHT22;71097;44.760;37.726;2023-07-13T03:32:08;23.98;76.95
79026;DHT22;71097;44.760;37.726;2023-07-13T03:33:12;24.05;76.73
79026;DHT22;71097;44.760;37.726;2023-07-13T03:34:14;24.10;76.67
79026;DHT22;71097;44.760;37.726;2023-07-13T03:35:16;24.12;76.62
79026;DHT22;71097;44.760;37.726;2023-07-13T03:36:21;24.20;76.30
79026;DHT22;71097;44.760;37.726;2023-07-13T03:37:24;24.31;75.98
79026;DHT22;71097;44.760;37.726;2023-07-13T03:38:26;24.39;75.83
79026;DHT22;71097;44.760;37.726;2023-07-13T03:39:28;24.47;75.57
79026;DHT22;71097;44.760;37.726;2023-07-13T03:40:32;24.56;75.30
79026;DHT22;71097;44.760;37.726;2023-07-13T03:41:34;24.71;74.71
79026;DHT22;71097;44.760;37.726;2023-07-13T03:42:36;24.80;74.39
79026;DHT22;71097;44.760;37.726;2023-07-13T03:43:37;24.98;73.99
79026;DHT22;71097;44.760;37.726;2023-07-13T03:44:40;25.14;73.58
79026;DHT22;71097;44.760;37.726;2023-07-13T03:45:41;25.36;72.96
79026;DHT22;71097;44.760;37.726;2023-07-13T03:46:44;25.44;72.64
79026;DHT22;71097;44.760;37.726;2023-07-13T03:47:45;25.57;72.24
79026;DHT22;71097;44.760;37.726;2023-07-13T03:48:48;25.63;71.68
79026;DHT22;71097;44.760;37.726;2023-07-13T03:49:49;25.63;71.82
79026;DHT22;71097;44.760;37.726;2023-07-13T03:50:51;25.64;71.70
79026;DHT22;71097;44.760;37.726;2023-07-13T03:51:53;25.76;71.31
79026;DHT22;71097;44.760;37.726;2023-07-13T03:52:55;25.90;70.64
79026;DHT22;71097;44.760;37.726;2023-07-13T03:53:57;26.03;70.54
79026;DHT22;71097;44.760;37.726;2023-07-13T03:54:58;26.16;69.90
79026;DHT22;71097;44.760;37.726;2023-07-13T03:56:00;26.32;69.45
79026;DHT22;71097;44.760;37.726;2023-07-13T03:57:02;26.43;69.31
79026;DHT22;71097;44.760;37.726;2023-07-13T03:58:28;26.58;68.23
79026;DHT22;71097;44.760;37.726;2023-07-13T03:59:34;26.64;68.37
79026;DHT22;71097;44.760;37.726;2023-07-13T04:00:36;26.77;68.04
79026;DHT22;71097;44.760;37.726;2023-07-13T04:01:38;26.87;67.42
79026;DHT22;71097;44.760;37.726;2023-07-13T04:02:39;26.91;67.34
79026;DHT22;71097;44.760;37.726;2023-07-13T04:03:42;27.07;67.50
79026;DHT22;71097;44.760;37.726;2023-07-13T04:04:49;27.21;66.51
79026;DHT22;71097;44.760;37.726;2023-07-13T04:05:50;27.35;66.08
79026;DHT22;71097;44.760;37.726;2023-07-13T04:06:52;27.50;66.10
79026;DHT22;71097;44.760;37.726;2023-07-13T04:07:54;27.64;65.66
79026;DHT22;71097;44.760;37.726;2023-07-13T04:08:58;27.71;65.04
79026;DHT22;71097;44.760;37.726;2023-07-13T04:10:00;27.82;64.67
79026;DHT22;71097;44.760;37.726;2023-07-13T04:11:03;27.95;63.85
79026;DHT22;71097;44.760;37.726;2023-07-13T04:12:05;28.08;63.76
79026;DHT22;71097;44.760;37.726;2023-07-13T04:13:07;28.18;63.60
79026;DHT22;71097;44.760;37.726;2023-07-13T04:14:09;28.27;63.46
79026;DHT22;71097;44.760;37.726;2023-07-13T04:15:11;28.41;62.95
79026;DHT22;71097;44.760;37.726;2023-07-13T04:16:14;28.56;61.31
79026;DHT22;71097;44.760;37.726;2023-07-13T04:17:15;28.68;61.54
79026;DHT22;71097;44.760;37.726;2023-07-13T04:18:17;28.84;61.25
79026;DHT22;71097;44.760;37.726;2023-07-13T04:19:20;28.89;60.99
79026;DHT22;71097;44.760;37.726;2023-07-13T04:20:22;28.93;60.72
79026;DHT22;71097;44.760;37.726;2023-07-13T04:21:26;29.03;60.74
79026;DHT22;71097;44.760;37.726;2023-07-13T04:22:28;29.09;60.28
79026;DHT22;71097;44.760;37.726;2023-07-13T04:23:30;29.22;59.39
79026;DHT22;71097;44.760;37.726;2023-07-13T04:24:31;29.27;58.96
79026;DHT22;71097;44.760;37.726;2023-07-13T04:25:33;29.24;58.54
79026;DHT22;71097;44.760;37.726;2023-07-13T04:26:35;29.32;58.05
79026;DHT22;71097;44.760;37.726;2023-07-13T04:27:45;29.37;58.06
79026;DHT22;71097;44.760;37.726;2023-07-13T04:28:47;29.37;57.92
79026;DHT22;71097;44.760;37.726;2023-07-13T04:29:49;29.27;58.65
79026;DHT22;71097;44.760;37.726;2023-07-13T04:30:50;29.13;58.87
79026;DHT22;71097;44.760;37.726;2023-07-13T04:31:52;29.07;58.83
79026;DHT22;71097;44.760;37.726;2023-07-13T04:32:53;28.92;59.49
79026;DHT22;71097;44.760;37.726;2023-07-13T04:33:55;28.78;59.99
79026;DHT22;71097;44.760;37.726;2023-07-13T04:34:57;28.77;59.99
79026;DHT22;71097;44.760;37.726;2023-07-13T04:36:00;28.79;60.54
79026;DHT22;71097;44.760;37.726;2023-07-13T04:37:03;28.73;59.77
79026;DHT22;71097;44.760;37.726;2023-07-13T04:38:05;28.65;60.33
79026;DHT22;71097;44.760;37.726;2023-07-13T04:39:07;28.85;60.12
79026;DHT22;71097;44.760;37.726;2023-07-13T04:40:10;28.94;59.51
79026;DHT22;71097;44.760;37.726;2023-07-13T04:41:13;29.11;58.41
79026;DHT22;71097;44.760;37.726;2023-07-13T04:42:15;29.28;58.41
79026;DHT22;71097;44.760;37.726;2023-07-13T04:43:18;29.44;58.13
79026;DHT22;71097;44.760;37.726;2023-07-13T04:44:20;29.52;58.03
79026;DHT22;71097;44.760;37.726;2023-07-13T04:45:22;29.50;57.84
79026;DHT22;71097;44.760;37.726;2023-07-13T04:46:25;29.51;58.61
79026;DHT22;71097;44.760;37.726;2023-07-13T04:47:26;29.56;57.37
79026;DHT22;71097;44.760;37.726;2023-07-13T04:48:31;29.59;57.87
79026;DHT22;71097;44.760;37.726;2023-07-13T04:49:32;29.65;56.82
79026;DHT22;71097;44.760;37.726;2023-07-13T04:50:37;29.72;57.23
79026;DHT22;71097;44.760;37.726;2023-07-13T04:51:38;29.62;56.45
79026;DHT22;71097;44.760;37.726;2023-07-13T04:52:45;29.50;57.52
79026;DHT22;71097;44.760;37.726;2023-07-13T04:53:47;29.38;57.03
79026;DHT22;71097;44.760;37.726;2023-07-13T04:54:49;29.28;57.53
79026;DHT22;71097;44.760;37.726;2023-07-13T04:55:50;29.14;57.60
79026;DHT22;71097;44.760;37.726;2023-07-13T04:56:51;29.05;58.03
79026;DHT22;71097;44.760;37.726;2023-07-13T04:57:53;28.89;58.93
79026;DHT22;71097;44.760;37.726;2023-07-13T04:58:54;28.79;59.51
79026;DHT22;71097;44.760;37.726;2023-07-13T04:59:57;28.74;60.06
79026;DHT22;71097;44.760;37.726;2023-07-13T05:01:03;28.65;58.77
79026;DHT22;71097;44.760;37.726;2023-07-13T05:02:05;28.57;59.55
79026;DHT22;71097;44.760;37.726;2023-07-13T05:03:07;28.44;58.58
79026;DHT22;71097;44.760;37.726;2023-07-13T05:04:09;28.34;57.68
79026;DHT22;71097;44.760;37.726;2023-07-13T05:05:10;28.21;58.01
79026;DHT22;71097;44.760;37.726;2023-07-13T05:06:12;28.10;58.50
79026;DHT22;71097;44.760;37.726;2023-07-13T05:07:15;28.05;58.61
79026;DHT22;71097;44.760;37.726;2023-07-13T05:08:16;27.99;59.48
79026;DHT22;71097;44.760;37.726;2023-07-13T05:09:18;27.95;59.83
79026;DHT22;71097;44.760;37.726;2023-07-13T05:10:20;27.96;60.07
79026;DHT22;71097;44.760;37.726;2023-07-13T05:11:21;27.89;59.77
79026;DHT22;71097;44.760;37.726;2023-07-13T05:12:23;27.85;60.35
79026;DHT22;71097;44.760;37.726;2023-07-13T05:13:25;27.83;60.51
79026;DHT22;71097;44.760;37.726;2023-07-13T05:14:26;27.81;59.93
79026;DHT22;71097;44.760;37.726;2023-07-13T05:15:33;27.76;61.03
79026;DHT22;71097;44.760;37.726;2023-07-13T05:16:35;27.79;60.74
79026;DHT22;71097;44.760;37.726;2023-07-13T05:17:36;27.71;61.54
79026;DHT22;71097;44.760;37.726;2023-07-13T05:18:40;27.71;61.14
79026;DHT22;71097;44.760;37.726;2023-07-13T05:19:41;27.67;61.96
79026;DHT22;71097;44.760;37.726;2023-07-13T05:20:43;27.67;61.92
79026;DHT22;71097;44.760;37.726;2023-07-13T05:21:44;27.59;62.53
79026;DHT22;71097;44.760;37.726;2023-07-13T05:22:46;27.57;62.20
79026;DHT22;71097;44.760;37.726;2023-07-13T05:23:48;27.55;62.93
79026;DHT22;71097;44.760;37.726;2023-07-13T05:24:49;27.54;63.44
79026;DHT22;71097;44.760;37.726;2023-07-13T05:25:51;27.51;62.66
79026;DHT22;71097;44.760;37.726;2023-07-13T05:26:52;27.44;62.84
79026;DHT22;71097;44.760;37.726;2023-07-13T05:27:54;27.42;63.75
79026;DHT22;71097;44.760;37.726;2023-07-13T05:28:56;27.36;62.80
79026;DHT22;71097;44.760;37.726;2023-07-13T05:29:57;27.35;63.37
79026;DHT22;71097;44.760;37.726;2023-07-13T05:30:59;27.34;62.25
79026;DHT22;71097;44.760;37.726;2023-07-13T05:32:00;27.35;62.51
79026;DHT22;71097;44.760;37.726;2023-07-13T05:33:02;27.32;61.80
79026;DHT22;71097;44.760;37.726;2023-07-13T05:34:03;27.26;62.32
79026;DHT22;71097;44.760;37.726;2023-07-13T05:35:05;27.23;62.56
79026;DHT22;71097;44.760;37.726;2023-07-13T05:36:08;27.22;62.08
79026;DHT22;71097;44.760;37.726;2023-07-13T05:37:09;27.17;62.05
79026;DHT22;71097;44.760;37.726;2023-07-13T05:38:11;27.15;61.77
79026;DHT22;71097;44.760;37.726;2023-07-13T05:39:12;27.12;61.38
79026;DHT22;71097;44.760;37.726;2023-07-13T05:40:14;27.14;61.70
79026;DHT22;71097;44.760;37.726;2023-07-13T05:41:16;27.21;60.21
79026;DHT22;71097;44.760;37.726;2023-07-13T05:42:17;27.28;58.45
79026;DHT22;71097;44.760;37.726;2023-07-13T05:43:19;27.30;58.14
79026;DHT22;71097;44.760;37.726;2023-07-13T05:44:20;27.31;58.19
79026;DHT22;71097;44.760;37.726;2023-07-13T05:45:22;27.41;58.64
79026;DHT22;71097;44.760;37.726;2023-07-13T05:46:24;27.39;56.48
79026;DHT22;71097;44.760;37.726;2023-07-13T05:47:25;27.44;56.37
79026;DHT22;71097;44.760;37.726;2023-07-13T05:48:27;27.50;56.57
79026;DHT22;71097;44.760;37.726;2023-07-13T05:49:29;27.67;56.12
79026;DHT22;71097;44.760;37.726;2023-07-13T05:50:31;27.82;55.02
79026;DHT22;71097;44.760;37.726;2023-07-13T05:51:33;27.81;56.48
79026;DHT22;71097;44.760;37.726;2023-07-13T05:52:34;27.86;56.49
79026;DHT22;71097;44.760;37.726;2023-07-13T05:53:36;27.89;56.48
79026;DHT22;71097;44.760;37.726;2023-07-13T05:54:37;27.82;57.15
79026;DHT22;71097;44.760;37.726;2023-07-13T05:55:45;27.71;58.22
79026;DHT22;71097;44.760;37.726;2023-07-13T05:56:51;27.58;58.09
79026;DHT22;71097;44.760;37.726;2023-07-13T05:57:52;27.57;58.96
79026;DHT22;71097;44.760;37.726;2023-07-13T05:58:54;27.55;59.79
79026;DHT22;71097;44.760;37.726;2023-07-13T05:59:55;27.65;60.64
79026;DHT22;71097;44.760;37.726;2023-07-13T06:01:04;27.76;63.24
79026;DHT22;71097;44.760;37.726;2023-07-13T06:02:09;27.75;61.04
79026;DHT22;71097;44.760;37.726;2023-07-13T06:03:11;27.78;60.70
79026;DHT22;71097;44.760;37.726;2023-07-13T06:04:12;27.81;61.35
79026;DHT22;71097;44.760;37.726;2023-07-13T06:05:14;27.83;59.42
79026;DHT22;71097;44.760;37.726;2023-07-13T06:06:16;27.99;60.83
79026;DHT22;71097;44.760;37.726;2023-07-13T06:07:18;28.10;62.36
79026;DHT22;71097;44.760;37.726;2023-07-13T06:08:19;28.20;61.08
79026;DHT22;71097;44.760;37.726;2023-07-13T06:09:21;28.20;60.34
79026;DHT22;71097;44.760;37.726;2023-07-13T06:10:22;28.23;59.40
79026;DHT22;71097;44.760;37.726;2023-07-13T06:11:26;28.35;59.53
79026;DHT22;71097;44.760;37.726;2023-07-13T06:12:28;28.40;59.02
79026;DHT22;71097;44.760;37.726;2023-07-13T06:13:30;28.41;56.65
79026;DHT22;71097;44.760;37.726;2023-07-13T06:14:31;28.29;56.91
79026;DHT22;71097;44.760;37.726;2023-07-13T06:15:33;28.19;61.38
79026;DHT22;71097;44.760;37.726;2023-07-13T06:16:34;27.98;63.29
79026;DHT22;71097;44.760;37.726;2023-07-13T06:17:36;27.87;65.04
79026;DHT22;71097;44.760;37.726;2023-07-13T06:18:40;27.84;64.11
79026;DHT22;71097;44.760;37.726;2023-07-13T06:19:42;27.81;64.92
79026;DHT22;71097;44.760;37.726;2023-07-13T06:20:44;27.88;64.59
79026;DHT22;71097;44.760;37.726;2023-07-13T06:21:45;28.03;64.39
79026;DHT22;71097;44.760;37.726;2023-07-13T06:22:47;28.09;64.64
79026;DHT22;71097;44.760;37.726;2023-07-13T06:23:49;28.03;63.21
79026;DHT22;71097;44.760;37.726;2023-07-13T06:24:51;27.87;63.95
79026;DHT22;71097;44.760;37.726;2023-07-13T06:25:53;27.63;64.18
79026;DHT22;71097;44.760;37.726;2023-07-13T06:26:54;27.44;65.76
79026;DHT22;71097;44.760;37.726;2023-07-13T06:27:56;27.35;66.43
79026;DHT22;71097;44.760;37.726;2023-07-13T06:29:03;27.20;67.23
79026;DHT22;71097;44.760;37.726;2023-07-13T06:30:05;27.20;67.94
79026;DHT22;71097;44.760;37.726;2023-07-13T06:31:08;27.11;67.88